YPKG

Kalgoorlie-Boulder Airport

Airport
ICAO code
YPKG
IATA Code
KGI
Summary
ICAO Region
APAC
ICAO Territory
Location

Kalgoorlie, Western Australia

Serving
Kalgoorlie
Elevation
1203 ft
Coordinates
30° 47' 5" S , 121° 27' 36" E
KCC
Metar
Observation
YPKG 091900Z AUTO 15011KT 9999 // NCD 18/12 Q1012 RF00.0/000.0
Station
Kalgoorlie Boulder Amo
Date/Time
2022-12-09 19:00:00
Wind direction
150°
Wind speed
11 kts
Lowest cloud amount
no clouds detected
Temperature
18°C
Dew point
12°C
Humidity
67%
QNH
1012 hPa
Weather condition
n/a

Airport located 7 km from the center of Kalgoorlie, Western Australia.

Climatology

Hot, semi-arid/Steppe climate (Köppen climate classification BSh) - hot, sometimes extremely hot summers and mild to warm winters, with low annual precipitation.

Airport map

Aerial View

SKYbrary Partners:

Safety knowledge contributed by: